Time;durP1;ratioP1;P1;durP2;ratioP2;P2;SDS_P1;SDS_P2;PMS_P1;PMS_P2;Temp;Humidity;BMP_temperature;BMP_pressure;BME280_temperature;BME280_humidity;BME280_pressure;Samples;Min_cycle;Max_cycle;Signal;HPM_P1;HPM_P2
2021/11/01 00:00:19;;;;;;;12.30;2.65;;;;;;;;;;690810;28;964;-55
2021/11/01 00:00:40;;;;;;;15.67;2.97;;;;;;;;;;690824;28;825;-55
2021/11/01 00:01:02;;;;;;;15.18;3.33;;;;;;;;;;690856;28;1051;-55
2021/11/01 00:01:22;;;;;;;14.95;3.50;;;;;;;;;;690902;28;931;-55
2021/11/01 00:01:43;;;;;;;14.43;3.20;;;;;;;;;;690653;28;1267;-56
2021/11/01 00:02:03;;;;;;;12.77;2.87;;;;;;;;;;690768;28;978;-56
2021/11/01 00:02:23;;;;;;;14.60;3.30;;;;;;;;;;690803;28;801;-55
2021/11/01 00:02:45;;;;;;;14.75;3.13;;;;;;;;;;690398;28;943;-55
2021/11/01 00:03:05;;;;;;;14.57;2.92;;;;;;;;;;690786;28;1050;-56
2021/11/01 00:03:25;;;;;;;13.68;3.20;;;;;;;;;;690953;28;1312;-56
2021/11/01 00:03:45;;;;;;;12.63;3.30;;;;;;;;;;690929;28;963;-56
2021/11/01 00:04:06;;;;;;;13.20;3.40;;;;;;;;;;690970;28;853;-53
2021/11/01 00:04:26;;;;;;;17.47;3.50;;;;;;;;;;691022;28;940;-55
2021/11/01 00:04:46;;;;;;;15.00;3.00;;;;;;;;;;690934;28;781;-53
2021/11/01 00:05:09;;;;;;;15.93;3.23;;;;;;;;;;691133;28;793;-56
2021/11/01 00:05:30;;;;;;;13.13;2.83;;;;;;;;;;690903;28;830;-55
2021/11/01 00:05:50;;;;;;;14.05;3.05;;;;;;;;;;691037;28;809;-55
2021/11/01 00:06:11;;;;;;;14.27;3.25;;;;;;;;;;691013;28;845;-55
2021/11/01 00:06:33;;;;;;;14.00;3.10;;;;;;;;;;690831;28;831;-55
2021/11/01 00:06:53;;;;;;;12.90;2.90;;;;;;;;;;691005;28;881;-54
2021/11/01 00:07:14;;;;;;;12.13;3.00;;;;;;;;;;690936;28;1968;-56
2021/11/01 00:07:37;;;;;;;14.03;3.13;;;;;;;;;;690956;28;907;-56
2021/11/01 00:07:57;;;;;;;13.93;2.85;;;;;;;;;;691034;28;995;-55
2021/11/01 00:08:18;;;;;;;15.00;2.77;;;;;;;;;;690877;28;884;-56
2021/11/01 00:08:38;;;;;;;14.67;3.10;;;;;;;;;;690932;28;1070;-55
2021/11/01 00:08:59;;;;;;;13.88;3.05;;;;;;;;;;690965;28;877;-56
2021/11/01 00:09:19;;;;;;;13.57;2.93;;;;;;;;;;690862;28;928;-55
2021/11/01 00:09:39;;;;;;;15.23;3.25;;;;;;;;;;690995;28;876;-55
2021/11/01 00:10:00;;;;;;;15.80;3.37;;;;;;;;;;690971;28;924;-56
2021/11/01 00:10:20;;;;;;;13.10;2.80;;;;;;;;;;690854;28;991;-56
2021/11/01 00:10:43;;;;;;;12.55;2.72;;;;;;;;;;690934;28;931;-55
2021/11/01 00:11:03;;;;;;;12.57;2.90;;;;;;;;;;690948;28;896;-55
2021/11/01 00:11:24;;;;;;;14.23;2.87;;;;;;;;;;690990;28;826;-55
2021/11/01 00:11:46;;;;;;;16.13;3.37;;;;;;;;;;691051;28;808;-55
2021/11/01 00:12:07;;;;;;;12.82;3.05;;;;;;;;;;690892;28;869;-54
2021/11/01 00:12:29;;;;;;;13.57;3.00;;;;;;;;;;690876;28;1002;-55
2021/11/01 00:12:52;;;;;;;12.43;2.90;;;;;;;;;;690383;28;1207;-55
2021/11/01 00:13:12;;;;;;;14.13;3.38;;;;;;;;;;690837;28;1411;-55
2021/11/01 00:13:32;;;;;;;15.15;3.42;;;;;;;;;;690807;28;1392;-55
2021/11/01 00:13:56;;;;;;;14.63;3.17;;;;;;;;;;690827;28;864;-57
2021/11/01 00:14:16;;;;;;;13.48;2.90;;;;;;;;;;691050;28;976;-57
2021/11/01 00:14:36;;;;;;;12.97;3.00;;;;;;;;;;690788;28;825;-55
2021/11/01 00:14:57;;;;;;;11.93;2.80;;;;;;;;;;690870;28;821;-55
2021/11/01 00:15:17;;;;;;;15.88;3.15;;;;;;;;;;690979;28;915;-55
2021/11/01 00:15:38;;;;;;;12.47;2.83;;;;;;;;;;690930;28;907;-54
2021/11/01 00:15:58;;;;;;;12.70;2.87;;;;;;;;;;690876;28;896;-54
2021/11/01 00:16:18;;;;;;;14.63;3.25;;;;;;;;;;690941;28;924;-55
2021/11/01 00:16:40;;;;;;;14.37;3.00;;;;;;;;;;690716;28;873;-54
2021/11/01 00:17:00;;;;;;;16.67;2.90;;;;;;;;;;690874;28;1089;-53
2021/11/01 00:17:22;;;;;;;13.73;2.70;;;;;;;;;;690730;28;845;-55
2021/11/01 00:17:42;;;;;;;17.40;3.33;;;;;;;;;;690567;28;916;-54
2021/11/01 00:18:03;;;;;;;15.77;3.20;;;;;;;;;;690644;28;939;-53
2021/11/01 00:18:23;;;;;;;13.65;2.92;;;;;;;;;;690848;28;817;-55
2021/11/01 00:18:43;;;;;;;11.20;2.93;;;;;;;;;;690436;28;1027;-55
2021/11/01 00:19:04;;;;;;;13.15;3.00;;;;;;;;;;690745;28;881;-56
2021/11/01 00:19:24;;;;;;;14.90;3.00;;;;;;;;;;690949;28;1117;-56
2021/11/01 00:19:44;;;;;;;13.30;2.97;;;;;;;;;;690871;28;809;-56
2021/11/01 00:20:06;;;;;;;12.97;3.20;;;;;;;;;;690932;28;980;-52
2021/11/01 00:20:26;;;;;;;12.77;3.10;;;;;;;;;;690884;28;880;-55
2021/11/01 00:20:46;;;;;;;14.23;3.07;;;;;;;;;;690802;28;817;-55
2021/11/01 00:21:06;;;;;;;14.93;2.87;;;;;;;;;;691379;28;1387;-54
2021/11/01 00:21:26;;;;;;;13.47;3.13;;;;;;;;;;690773;28;1022;-54
2021/11/01 00:21:47;;;;;;;13.07;2.90;;;;;;;;;;690872;28;884;-56
2021/11/01 00:22:07;;;;;;;13.73;2.83;;;;;;;;;;690934;28;1023;-54
2021/11/01 00:22:27;;;;;;;12.32;2.80;;;;;;;;;;690740;28;987;-56
2021/11/01 00:22:47;;;;;;;10.73;2.80;;;;;;;;;;690258;28;1000;-56
2021/11/01 00:23:07;;;;;;;10.33;2.60;;;;;;;;;;690992;28;935;-55
2021/11/01 00:23:27;;;;;;;11.63;2.70;;;;;;;;;;690688;28;1402;-54
2021/11/01 00:23:48;;;;;;;13.60;2.80;;;;;;;;;;690912;28;983;-55
2021/11/01 00:24:08;;;;;;;12.63;2.73;;;;;;;;;;690887;28;987;-55
2021/11/01 00:24:28;;;;;;;12.53;2.67;;;;;;;;;;690953;28;1421;-54
2021/11/01 00:24:51;;;;;;;12.83;2.60;;;;;;;;;;690752;28;861;-54
2021/11/01 00:25:12;;;;;;;11.05;2.72;;;;;;;;;;690893;28;829;-56
2021/11/01 00:25:32;;;;;;;12.93;2.90;;;;;;;;;;690855;28;886;-55
2021/11/01 00:25:52;;;;;;;13.30;3.00;;;;;;;;;;690902;28;837;-53
2021/11/01 00:26:13;;;;;;;12.10;2.80;;;;;;;;;;690896;28;849;-55
2021/11/01 00:26:33;;;;;;;11.60;2.53;;;;;;;;;;690873;28;976;-56
2021/11/01 00:26:56;;;;;;;11.50;2.65;;;;;;;;;;690766;28;930;-56
2021/11/01 00:27:17;;;;;;;12.13;2.50;;;;;;;;;;690870;28;1919;-55
2021/11/01 00:27:37;;;;;;;15.65;2.92;;;;;;;;;;690925;28;845;-55
2021/11/01 00:27:59;;;;;;;15.07;3.27;;;;;;;;;;690751;28;802;-56
2021/11/01 00:28:20;;;;;;;13.18;3.05;;;;;;;;;;690959;28;930;-55
2021/11/01 00:28:40;;;;;;;12.73;2.97;;;;;;;;;;690860;28;991;-56
2021/11/01 00:29:03;;;;;;;14.20;2.97;;;;;;;;;;690724;28;845;-55
2021/11/01 00:29:23;;;;;;;12.15;2.63;;;;;;;;;;690910;28;880;-56
2021/11/01 00:29:44;;;;;;;10.82;2.40;;;;;;;;;;690801;28;814;-55
2021/11/01 00:30:06;;;;;;;11.10;2.50;;;;;;;;;;690872;28;1022;-56
2021/11/01 00:30:26;;;;;;;12.70;2.63;;;;;;;;;;690909;28;1180;-56
2021/11/01 00:30:47;;;;;;;12.35;2.78;;;;;;;;;;690749;28;874;-56
2021/11/01 00:31:07;;;;;;;12.37;2.80;;;;;;;;;;690882;28;925;-54
2021/11/01 00:31:27;;;;;;;11.73;2.67;;;;;;;;;;690960;28;928;-55
2021/11/01 00:31:47;;;;;;;11.40;2.75;;;;;;;;;;690802;28;880;-55
2021/11/01 00:32:07;;;;;;;10.60;2.63;;;;;;;;;;690605;28;952;-56
2021/11/01 00:32:28;;;;;;;9.63;2.43;;;;;;;;;;690673;28;864;-54
2021/11/01 00:32:48;;;;;;;11.83;2.97;;;;;;;;;;690160;28;872;-57
2021/11/01 00:33:08;;;;;;;12.65;3.05;;;;;;;;;;690619;28;1213;-54
2021/11/01 00:33:28;;;;;;;12.23;3.30;;;;;;;;;;690463;28;868;-54
2021/11/01 00:33:49;;;;;;;11.50;2.93;;;;;;;;;;690415;28;817;-56
2021/11/01 00:34:09;;;;;;;13.35;2.60;;;;;;;;;;690859;28;896;-55
2021/11/01 00:34:29;;;;;;;12.90;2.63;;;;;;;;;;690832;28;916;-55
2021/11/01 00:34:49;;;;;;;12.80;2.60;;;;;;;;;;690860;28;1026;-53
2021/11/01 00:35:09;;;;;;;13.33;2.80;;;;;;;;;;690772;28;920;-55
2021/11/01 00:35:32;;;;;;;12.85;2.65;;;;;;;;;;693678;28;1337;-55
2021/11/01 00:35:53;;;;;;;12.10;2.40;;;;;;;;;;693386;28;1010;-55
2021/11/01 00:36:13;;;;;;;12.57;2.70;;;;;;;;;;693210;28;897;-56
2021/11/01 00:36:33;;;;;;;11.32;2.60;;;;;;;;;;693398;28;760;-55
2021/11/01 00:36:53;;;;;;;9.83;2.40;;;;;;;;;;693271;28;975;-55
2021/11/01 00:37:14;;;;;;;10.40;2.60;;;;;;;;;;692834;28;906;-55
2021/11/01 00:37:34;;;;;;;11.20;2.60;;;;;;;;;;690910;28;784;-56
2021/11/01 00:37:54;;;;;;;11.30;2.50;;;;;;;;;;690971;28;971;-56
2021/11/01 00:38:18;;;;;;;10.90;2.57;;;;;;;;;;690767;28;896;-56
2021/11/01 00:38:38;;;;;;;11.23;2.92;;;;;;;;;;690868;28;886;-55
2021/11/01 00:38:58;;;;;;;12.18;2.85;;;;;;;;;;690890;28;903;-56
2021/11/01 00:39:18;;;;;;;13.07;3.00;;;;;;;;;;690774;28;823;-55
2021/11/01 00:39:38;;;;;;;13.77;3.37;;;;;;;;;;690891;28;999;-56
2021/11/01 00:40:00;;;;;;;12.53;3.23;;;;;;;;;;690892;28;821;-55
2021/11/01 00:40:20;;;;;;;12.77;2.90;;;;;;;;;;690867;28;882;-56
2021/11/01 00:40:40;;;;;;;12.67;2.77;;;;;;;;;;690909;28;787;-55
2021/11/01 00:41:01;;;;;;;13.38;2.70;;;;;;;;;;690769;28;908;-56
2021/11/01 00:41:22;;;;;;;11.30;2.73;;;;;;;;;;690903;28;818;-57
2021/11/01 00:41:45;;;;;;;11.23;2.57;;;;;;;;;;690821;28;937;-56
2021/11/01 00:42:05;;;;;;;10.43;2.58;;;;;;;;;;690802;28;923;-56
2021/11/01 00:42:27;;;;;;;13.93;2.88;;;;;;;;;;690832;28;793;-55
2021/11/01 00:42:47;;;;;;;11.30;2.53;;;;;;;;;;690340;28;888;-56
2021/11/01 00:43:08;;;;;;;11.93;2.57;;;;;;;;;;690834;28;967;-55
2021/11/01 00:43:28;;;;;;;12.80;2.63;;;;;;;;;;690796;28;909;-54
2021/11/01 00:43:48;;;;;;;13.90;2.67;;;;;;;;;;690763;28;904;-55
2021/11/01 00:44:09;;;;;;;12.47;2.50;;;;;;;;;;690926;28;872;-54
2021/11/01 00:44:29;;;;;;;11.17;2.50;;;;;;;;;;690871;28;994;-56
2021/11/01 00:44:49;;;;;;;11.25;2.47;;;;;;;;;;690765;28;1073;-55
2021/11/01 00:45:10;;;;;;;13.50;2.80;;;;;;;;;;690882;28;970;-55
2021/11/01 00:45:31;;;;;;;12.53;2.87;;;;;;;;;;690860;28;858;-54
2021/11/01 00:45:51;;;;;;;11.55;2.80;;;;;;;;;;691127;28;1283;-55
2021/11/01 00:46:11;;;;;;;12.43;2.80;;;;;;;;;;690917;28;978;-55
2021/11/01 00:46:32;;;;;;;12.90;2.97;;;;;;;;;;690705;28;899;-56
2021/11/01 00:46:52;;;;;;;12.40;2.93;;;;;;;;;;690698;28;1002;-55
2021/11/01 00:47:13;;;;;;;11.97;2.37;;;;;;;;;;690846;28;971;-56
2021/11/01 00:47:33;;;;;;;12.48;2.80;;;;;;;;;;690739;28;1954;-56
2021/11/01 00:47:53;;;;;;;11.97;2.50;;;;;;;;;;690762;28;935;-55
2021/11/01 00:48:17;;;;;;;12.57;2.40;;;;;;;;;;690972;28;801;-56
2021/11/01 00:48:37;;;;;;;11.65;2.80;;;;;;;;;;690772;28;931;-56
2021/11/01 00:48:58;;;;;;;12.07;2.77;;;;;;;;;;690853;28;844;-56
2021/11/01 00:49:18;;;;;;;12.07;2.43;;;;;;;;;;690949;28;911;-56
2021/11/01 00:49:38;;;;;;;14.03;2.47;;;;;;;;;;690838;28;987;-55
2021/11/01 00:49:59;;;;;;;13.65;2.92;;;;;;;;;;690852;28;828;-56
2021/11/01 00:50:20;;;;;;;12.57;3.00;;;;;;;;;;690872;28;845;-56
2021/11/01 00:50:40;;;;;;;12.60;2.70;;;;;;;;;;690889;28;845;-56
2021/11/01 00:51:03;;;;;;;15.00;2.60;;;;;;;;;;690868;28;836;-54
2021/11/01 00:51:23;;;;;;;9.68;2.40;;;;;;;;;;690851;28;891;-55
2021/11/01 00:51:44;;;;;;;9.43;2.50;;;;;;;;;;691222;28;904;-54
2021/11/01 00:52:04;;;;;;;11.30;2.80;;;;;;;;;;690766;28;867;-56
2021/11/01 00:52:30;;;;;;;11.63;2.72;;;;;;;;;;690889;28;899;-54
2021/11/01 00:52:50;;;;;;;11.45;2.55;;;;;;;;;;690359;28;907;-55
2021/11/01 00:53:11;;;;;;;11.70;2.57;;;;;;;;;;690772;28;1439;-54
2021/11/01 00:53:34;;;;;;;14.15;2.85;;;;;;;;;;690960;28;878;-55
2021/11/01 00:53:57;;;;;;;12.88;2.90;;;;;;;;;;690873;28;911;-53
2021/11/01 00:54:17;;;;;;;13.45;2.55;;;;;;;;;;690847;28;884;-55
2021/11/01 00:54:39;;;;;;;13.35;2.55;;;;;;;;;;690884;28;916;-55
2021/11/01 00:55:02;;;;;;;11.73;2.60;;;;;;;;;;690731;28;829;-55
2021/11/01 00:55:32;;;;;;;12.35;2.58;;;;;;;;;;690968;28;938;-54
2021/11/01 00:55:53;;;;;;;14.05;2.65;;;;;;;;;;690766;28;931;-55
2021/11/01 00:56:13;;;;;;;11.93;2.67;;;;;;;;;;690910;28;895;-56
2021/11/01 00:56:34;;;;;;;11.20;2.77;;;;;;;;;;690977;28;853;-56
2021/11/01 00:56:54;;;;;;;12.40;2.70;;;;;;;;;;690752;28;789;-55
2021/11/01 00:57:15;;;;;;;11.47;2.60;;;;;;;;;;690960;28;804;-57
2021/11/01 00:57:44;;;;;;;12.38;2.70;;;;;;;;;;690866;28;917;-56
2021/11/01 00:58:04;;;;;;;12.95;2.50;;;;;;;;;;690790;28;865;-55
2021/11/01 00:58:25;;;;;;;13.90;2.40;;;;;;;;;;690932;28;828;-54
2021/11/01 00:58:48;;;;;;;14.45;2.65;;;;;;;;;;690749;28;878;-56
2021/11/01 00:59:08;;;;;;;14.65;2.90;;;;;;;;;;690825;28;944;-56
2021/11/01 00:59:29;;;;;;;14.40;2.87;;;;;;;;;;690921;28;990;-56
2021/11/01 00:59:49;;;;;;;11.43;2.30;;;;;;;;;;690825;28;950;-55
2021/11/01 01:00:09;;;;;;;11.47;2.60;;;;;;;;;;690808;28;1037;-56
2021/11/01 01:00:32;;;;;;;14.98;2.90;;;;;;;;;;690824;28;969;-56
2021/11/01 01:00:55;;;;;;;11.65;2.63;;;;;;;;;;690894;28;911;-56
2021/11/01 01:01:16;;;;;;;11.55;2.53;;;;;;;;;;690809;28;825;-56
2021/11/01 01:01:41;;;;;;;11.38;2.67;;;;;;;;;;690850;28;849;-56
2021/11/01 01:02:01;;;;;;;14.65;2.70;;;;;;;;;;690823;28;900;-55
2021/11/01 01:02:21;;;;;;;12.93;2.67;;;;;;;;;;690883;28;935;-55
2021/11/01 01:02:41;;;;;;;13.00;2.60;;;;;;;;;;690445;28;971;-56
2021/11/01 01:03:02;;;;;;;11.97;2.50;;;;;;;;;;690664;28;798;-55
2021/11/01 01:03:22;;;;;;;14.45;2.50;;;;;;;;;;690578;28;1421;-56
2021/11/01 01:03:43;;;;;;;13.47;2.67;;;;;;;;;;690877;28;919;-57
2021/11/01 01:04:06;;;;;;;12.27;2.60;;;;;;;;;;690767;28;1339;-56
2021/11/01 01:04:29;;;;;;;13.52;2.80;;;;;;;;;;690610;28;1019;-54
2021/11/01 01:04:49;;;;;;;11.52;2.70;;;;;;;;;;690867;28;924;-57
2021/11/01 01:05:10;;;;;;;11.38;2.60;;;;;;;;;;690827;28;848;-56
2021/11/01 01:05:30;;;;;;;12.87;3.10;;;;;;;;;;690878;28;769;-55
2021/11/01 01:05:50;;;;;;;13.20;3.20;;;;;;;;;;690882;28;856;-54
2021/11/01 01:06:11;;;;;;;12.30;2.60;;;;;;;;;;690811;28;857;-55
2021/11/01 01:06:31;;;;;;;11.70;2.70;;;;;;;;;;690812;28;978;-55
2021/11/01 01:06:52;;;;;;;12.53;2.63;;;;;;;;;;690866;28;858;-56
2021/11/01 01:07:12;;;;;;;12.60;2.47;;;;;;;;;;690786;28;872;-56
2021/11/01 01:07:32;;;;;;;14.75;2.85;;;;;;;;;;690665;28;1956;-55
2021/11/01 01:07:53;;;;;;;13.30;2.97;;;;;;;;;;690910;28;836;-55
2021/11/01 01:08:17;;;;;;;11.10;2.80;;;;;;;;;;690499;28;824;-55
2021/11/01 01:08:37;;;;;;;12.00;2.50;;;;;;;;;;690618;28;937;-54
2021/11/01 01:08:58;;;;;;;14.93;3.00;;;;;;;;;;690514;28;888;-55
2021/11/01 01:09:18;;;;;;;14.75;3.10;;;;;;;;;;691174;28;1349;-55
2021/11/01 01:09:38;;;;;;;14.83;3.07;;;;;;;;;;690713;28;907;-56
2021/11/01 01:09:58;;;;;;;11.93;2.70;;;;;;;;;;690620;28;865;-55
2021/11/01 01:10:18;;;;;;;13.43;2.70;;;;;;;;;;690904;28;836;-55
2021/11/01 01:10:42;;;;;;;12.77;2.80;;;;;;;;;;690815;28;817;-54
2021/11/01 01:11:02;;;;;;;11.27;2.78;;;;;;;;;;690680;28;816;-56
2021/11/01 01:11:24;;;;;;;11.52;2.80;;;;;;;;;;690875;28;812;-57
2021/11/01 01:11:44;;;;;;;11.98;2.97;;;;;;;;;;690943;28;945;-55
2021/11/01 01:12:07;;;;;;;11.63;2.60;;;;;;;;;;690811;28;801;-55
2021/11/01 01:12:27;;;;;;;12.13;2.88;;;;;;;;;;690755;28;909;-55
2021/11/01 01:12:47;;;;;;;12.60;2.75;;;;;;;;;;690254;28;1011;-54
2021/11/01 01:13:11;;;;;;;13.57;2.50;;;;;;;;;;690907;28;1366;-56
2021/11/01 01:13:38;;;;;;;12.90;2.55;;;;;;;;;;690806;28;900;-55
2021/11/01 01:13:59;;;;;;;11.63;2.75;;;;;;;;;;690907;28;824;-55
2021/11/01 01:14:26;;;;;;;13.85;2.78;;;;;;;;;;690812;28;913;-56
2021/11/01 01:14:52;;;;;;;11.55;2.55;;;;;;;;;;690622;28;892;-56
2021/11/01 01:15:17;;;;;;;11.68;2.55;;;;;;;;;;690783;28;1699;-56
2021/11/01 01:16:04;;;;;;;10.77;2.83;;;;;;;;;;690548;28;919;-56
2021/11/01 01:16:45;;;;;;;10.93;2.70;;;;;;;;;;690854;28;804;-55
2021/11/01 01:17:05;;;;;;;13.93;2.78;;;;;;;;;;690712;28;981;-55
2021/11/01 01:17:26;;;;;;;12.97;2.80;;;;;;;;;;690759;28;841;-56
2021/11/01 01:17:47;;;;;;;11.97;2.93;;;;;;;;;;690877;28;834;-56
2021/11/01 01:18:14;;;;;;;14.07;3.20;;;;;;;;;;690828;28;1087;-55
2021/11/01 01:18:36;;;;;;;12.98;2.47;;;;;;;;;;690685;28;1313;-56
2021/11/01 01:18:59;;;;;;;10.75;2.50;;;;;;;;;;690699;28;943;-56
2021/11/01 01:19:22;;;;;;;13.00;2.90;;;;;;;;;;690733;28;930;-55
2021/11/01 01:19:46;;;;;;;14.43;3.20;;;;;;;;;;690751;28;1081;-56
2021/11/01 01:20:10;;;;;;;15.50;3.05;;;;;;;;;;690942;28;934;-57
2021/11/01 01:20:31;;;;;;;12.10;3.00;;;;;;;;;;690851;28;931;-56
2021/11/01 01:20:51;;;;;;;11.95;2.63;;;;;;;;;;690779;28;832;-56
2021/11/01 01:22:29;;;;;;;10.57;2.70;;;;;;;;;;690888;28;710;-55
2021/11/01 01:22:50;;;;;;;11.55;2.60;;;;;;;;;;690334;28;895;-57
2021/11/01 01:23:10;;;;;;;10.50;2.63;;;;;;;;;;690500;28;1233;-57
2021/11/01 01:23:30;;;;;;;12.53;3.07;;;;;;;;;;690889;28;786;-55
2021/11/01 01:23:53;;;;;;;13.02;2.88;;;;;;;;;;690804;28;979;-56
2021/11/01 01:24:13;;;;;;;11.68;2.58;;;;;;;;;;690793;28;970;-56
2021/11/01 01:24:34;;;;;;;11.73;2.83;;;;;;;;;;690836;28;860;-57
2021/11/01 01:24:56;;;;;;;12.20;2.80;;;;;;;;;;690721;28;865;-56
2021/11/01 01:25:21;;;;;;;10.10;2.70;;;;;;;;;;690659;28;959;-56
2021/11/01 01:25:44;;;;;;;11.82;2.75;;;;;;;;;;690906;28;900;-56
2021/11/01 01:26:08;;;;;;;10.52;3.20;;;;;;;;;;690642;28;1010;-54
2021/11/01 01:26:28;;;;;;;9.20;2.80;;;;;;;;;;690752;28;1246;-56
2021/11/01 01:26:48;;;;;;;9.70;2.47;;;;;;;;;;690769;28;832;-56
2021/11/01 01:27:09;;;;;;;13.60;2.90;;;;;;;;;;690843;28;853;-56
2021/11/01 01:27:35;;;;;;;13.77;3.13;;;;;;;;;;690697;28;1923;-57
2021/11/01 01:27:55;;;;;;;11.77;3.00;;;;;;;;;;690683;28;1022;-56
2021/11/01 01:28:16;;;;;;;13.63;2.90;;;;;;;;;;690591;28;912;-57
2021/11/01 01:28:36;;;;;;;15.20;2.87;;;;;;;;;;690637;28;965;-57
2021/11/01 01:28:57;;;;;;;13.33;2.70;;;;;;;;;;690603;28;870;-56
2021/11/01 01:29:17;;;;;;;11.82;2.78;;;;;;;;;;690587;28;872;-57
2021/11/01 01:29:37;;;;;;;12.57;3.03;;;;;;;;;;690565;28;829;-56
2021/11/01 01:29:57;;;;;;;10.20;2.88;;;;;;;;;;690642;28;986;-56
2021/11/01 01:30:18;;;;;;;11.60;2.87;;;;;;;;;;690816;28;967;-56
2021/11/01 01:30:39;;;;;;;13.18;2.95;;;;;;;;;;690746;28;999;-55
2021/11/01 01:31:01;;;;;;;11.25;2.33;;;;;;;;;;690703;28;995;-56
2021/11/01 01:31:21;;;;;;;13.18;2.72;;;;;;;;;;690905;28;899;-56
2021/11/01 01:31:41;;;;;;;12.40;3.10;;;;;;;;;;690643;28;809;-57
2021/11/01 01:32:02;;;;;;;12.00;2.90;;;;;;;;;;690840;28;880;-55
2021/11/01 01:32:22;;;;;;;14.43;2.87;;;;;;;;;;690832;28;869;-56
2021/11/01 01:32:43;;;;;;;15.00;2.93;;;;;;;;;;690544;28;809;-56
2021/11/01 01:33:07;;;;;;;12.45;2.80;;;;;;;;;;690528;28;1362;-56
2021/11/01 01:33:27;;;;;;;13.52;2.60;;;;;;;;;;690622;28;853;-55
2021/11/01 01:33:47;;;;;;;11.20;2.50;;;;;;;;;;690825;28;917;-56
2021/11/01 01:34:08;;;;;;;11.37;2.63;;;;;;;;;;690807;28;891;-56
2021/11/01 01:34:28;;;;;;;13.57;2.90;;;;;;;;;;690812;28;1028;-56
2021/11/01 01:34:49;;;;;;;12.70;2.73;;;;;;;;;;690913;28;883;-57
2021/11/01 01:35:11;;;;;;;11.68;2.88;;;;;;;;;;690682;28;881;-56
2021/11/01 01:35:34;;;;;;;10.88;2.60;;;;;;;;;;690825;28;891;-58
2021/11/01 01:35:56;;;;;;;12.57;2.90;;;;;;;;;;690866;28;930;-55
2021/11/01 01:36:16;;;;;;;14.05;2.72;;;;;;;;;;690750;28;935;-56
2021/11/01 01:36:36;;;;;;;15.50;2.80;;;;;;;;;;690757;28;1277;-57
2021/11/01 01:36:57;;;;;;;14.03;2.90;;;;;;;;;;690797;28;848;-55
2021/11/01 01:37:17;;;;;;;13.80;2.60;;;;;;;;;;690682;28;799;-56
2021/11/01 01:37:37;;;;;;;11.03;2.63;;;;;;;;;;690715;28;967;-56
2021/11/01 01:37:57;;;;;;;13.87;3.13;;;;;;;;;;690808;28;951;-55
2021/11/01 01:38:17;;;;;;;15.30;2.87;;;;;;;;;;690859;28;781;-56
2021/11/01 01:38:38;;;;;;;13.25;2.90;;;;;;;;;;690869;28;896;-55
2021/11/01 01:39:00;;;;;;;12.83;2.77;;;;;;;;;;690762;28;833;-56
2021/11/01 01:39:21;;;;;;;16.58;3.08;;;;;;;;;;690790;28;875;-55
2021/11/01 01:39:41;;;;;;;12.40;2.80;;;;;;;;;;690777;28;1020;-54
2021/11/01 01:40:08;;;;;;;11.63;2.60;;;;;;;;;;690677;28;932;-55
2021/11/01 01:40:29;;;;;;;12.82;2.58;;;;;;;;;;690787;28;937;-54
2021/11/01 01:40:49;;;;;;;11.75;2.67;;;;;;;;;;690464;28;766;-56
2021/11/01 01:41:24;;;;;;;10.53;2.47;;;;;;;;;;690615;28;837;-55
2021/11/01 01:41:46;;;;;;;10.82;2.50;;;;;;;;;;690525;28;883;-56
2021/11/01 01:42:06;;;;;;;12.27;2.67;;;;;;;;;;690577;28;897;-56
2021/11/01 01:42:26;;;;;;;12.45;2.47;;;;;;;;;;690627;28;1015;-57
2021/11/01 01:42:46;;;;;;;12.23;2.60;;;;;;;;;;690311;28;837;-56
2021/11/01 01:43:07;;;;;;;13.23;2.90;;;;;;;;;;690693;28;1395;-56
2021/11/01 01:43:30;;;;;;;12.18;2.80;;;;;;;;;;690822;28;829;-54
2021/11/01 01:43:52;;;;;;;13.40;2.90;;;;;;;;;;690765;28;912;-56
2021/11/01 01:44:13;;;;;;;11.60;2.80;;;;;;;;;;690900;28;817;-55
2021/11/01 01:44:33;;;;;;;13.32;2.90;;;;;;;;;;690896;28;785;-57
2021/11/01 01:44:54;;;;;;;13.63;2.58;;;;;;;;;;690781;28;966;-55
2021/11/01 01:45:14;;;;;;;14.17;2.70;;;;;;;;;;690899;28;991;-56
2021/11/01 01:45:34;;;;;;;13.47;2.57;;;;;;;;;;690750;28;825;-56
2021/11/01 01:45:54;;;;;;;11.53;2.60;;;;;;;;;;691069;28;918;-56
2021/11/01 01:46:14;;;;;;;10.43;2.60;;;;;;;;;;691338;28;809;-56
2021/11/01 01:46:35;;;;;;;11.50;2.53;;;;;;;;;;691290;28;1398;-56
2021/11/01 01:46:56;;;;;;;11.00;2.63;;;;;;;;;;691253;28;903;-57
2021/11/01 01:47:16;;;;;;;10.07;2.50;;;;;;;;;;691127;28;1311;-56
2021/11/01 01:47:36;;;;;;;9.80;2.65;;;;;;;;;;691220;28;1911;-55
2021/11/01 01:47:57;;;;;;;11.97;2.50;;;;;;;;;;691325;28;892;-54
2021/11/01 01:48:19;;;;;;;11.63;2.60;;;;;;;;;;690980;28;903;-58
2021/11/01 01:48:39;;;;;;;10.35;2.40;;;;;;;;;;691148;28;907;-56
2021/11/01 01:48:59;;;;;;;12.57;2.60;;;;;;;;;;691161;28;861;-56
2021/11/01 01:49:20;;;;;;;14.60;2.70;;;;;;;;;;691006;28;841;-55
2021/11/01 01:49:40;;;;;;;12.15;2.60;;;;;;;;;;691102;28;876;-55
2021/11/01 01:50:02;;;;;;;12.27;2.63;;;;;;;;;;691206;28;872;-56
2021/11/01 01:50:23;;;;;;;11.43;2.70;;;;;;;;;;693081;28;1451;-55
2021/11/01 01:50:43;;;;;;;11.03;2.40;;;;;;;;;;691354;28;864;-57
2021/11/01 01:51:05;;;;;;;11.55;2.20;;;;;;;;;;691264;28;846;-56
2021/11/01 01:51:29;;;;;;;14.20;2.50;;;;;;;;;;691343;28;1004;-57
2021/11/01 01:51:50;;;;;;;12.43;2.60;;;;;;;;;;691372;28;983;-56
2021/11/01 01:52:10;;;;;;;11.83;2.50;;;;;;;;;;691310;28;834;-55
2021/11/01 01:52:30;;;;;;;12.23;2.40;;;;;;;;;;691019;28;961;-56
2021/11/01 01:52:52;;;;;;;12.80;2.90;;;;;;;;;;690615;28;881;-56
2021/11/01 01:53:13;;;;;;;13.18;2.60;;;;;;;;;;690864;28;1299;-56
2021/11/01 01:53:33;;;;;;;11.97;2.53;;;;;;;;;;691152;28;850;-57
2021/11/01 01:53:53;;;;;;;10.90;2.40;;;;;;;;;;690968;28;821;-54
2021/11/01 01:54:14;;;;;;;11.60;2.67;;;;;;;;;;691184;28;849;-55
2021/11/01 01:54:34;;;;;;;12.02;2.58;;;;;;;;;;691215;28;793;-54
2021/11/01 01:54:54;;;;;;;11.50;2.67;;;;;;;;;;691289;28;856;-56
2021/11/01 01:55:15;;;;;;;11.73;2.63;;;;;;;;;;691247;28;820;-57
2021/11/01 01:55:37;;;;;;;10.60;2.28;;;;;;;;;;691342;28;825;-54
2021/11/01 01:55:57;;;;;;;9.75;2.30;;;;;;;;;;691223;28;966;-56
2021/11/01 01:56:19;;;;;;;11.20;2.28;;;;;;;;;;691344;28;817;-56
2021/11/01 01:56:39;;;;;;;12.20;2.30;;;;;;;;;;691133;28;892;-55
2021/11/01 01:56:59;;;;;;;11.52;2.78;;;;;;;;;;691367;28;1006;-55
2021/11/01 01:57:20;;;;;;;11.63;2.77;;;;;;;;;;691231;28;781;-55
2021/11/01 01:57:40;;;;;;;12.53;2.87;;;;;;;;;;691192;28;853;-56
2021/11/01 01:58:00;;;;;;;11.33;3.03;;;;;;;;;;691293;28;848;-55
2021/11/01 01:58:23;;;;;;;11.47;2.80;;;;;;;;;;690801;28;1313;-56
2021/11/01 01:58:47;;;;;;;10.52;2.55;;;;;;;;;;691223;28;876;-56
2021/11/01 01:59:09;;;;;;;9.88;2.33;;;;;;;;;;691312;28;967;-55
2021/11/01 01:59:33;;;;;;;12.10;2.47;;;;;;;;;;691046;28;909;-55
2021/11/01 01:59:54;;;;;;;9.60;2.37;;;;;;;;;;691298;28;976;-56
2021/11/01 02:00:30;;;;;;;8.70;2.20;;;;;;;;;;691252;28;872;-56
2021/11/01 02:01:23;;;;;;;10.32;2.78;;;;;;;;;;691174;28;833;-56
2021/11/01 02:01:37;;;;;;;10.35;2.70;;;;;;;;;;689989;28;1387;-58
2021/11/01 02:01:57;;;;;;;10.50;2.60;;;;;;;;;;691323;28;821;-55
2021/11/01 02:02:20;;;;;;;12.03;2.60;;;;;;;;;;691189;28;819;-57
2021/11/01 02:02:41;;;;;;;10.35;2.25;;;;;;;;;;690989;28;920;-54
2021/11/01 02:03:01;;;;;;;9.80;2.27;;;;;;;;;;690889;28;1268;-56
2021/11/01 02:03:21;;;;;;;9.77;2.35;;;;;;;;;;691222;28;892;-57
2021/11/01 02:03:46;;;;;;;11.83;2.60;;;;;;;;;;691301;28;869;-55
2021/11/01 02:04:06;;;;;;;11.52;2.33;;;;;;;;;;691194;28;908;-56
2021/11/01 02:04:27;;;;;;;11.97;2.67;;;;;;;;;;691280;28;917;-56
2021/11/01 02:04:48;;;;;;;9.45;2.40;;;;;;;;;;691261;28;949;-55
2021/11/01 02:05:08;;;;;;;11.10;2.40;;;;;;;;;;691197;28;833;-56
2021/11/01 02:05:35;;;;;;;11.27;2.42;;;;;;;;;;691203;28;865;-56
2021/11/01 02:06:14;;;;;;;10.48;2.40;;;;;;;;;;691235;28;936;-56
2021/11/01 02:06:44;;;;;;;10.60;2.78;;;;;;;;;;691284;28;1003;-56
2021/11/01 02:07:17;;;;;;;9.95;2.30;;;;;;;;;;691161;28;936;-55
2021/11/01 02:07:49;;;;;;;11.30;2.50;;;;;;;;;;691105;28;1906;-55
2021/11/01 02:08:10;;;;;;;12.55;2.70;;;;;;;;;;691311;28;865;-55
2021/11/01 02:08:32;;;;;;;11.45;2.70;;;;;;;;;;691260;28;884;-56
2021/11/01 02:09:04;;;;;;;11.20;2.60;;;;;;;;;;691137;28;840;-55
2021/11/01 02:09:43;;;;;;;12.50;2.83;;;;;;;;;;691161;28;996;-56
2021/11/01 02:10:13;;;;;;;10.20;2.45;;;;;;;;;;691299;28;951;-57
2021/11/01 02:10:35;;;;;;;10.02;2.10;;;;;;;;;;691141;28;868;-57
2021/11/01 02:11:04;;;;;;;10.50;2.30;;;;;;;;;;691194;28;1090;-56
2021/11/01 02:11:29;;;;;;;11.52;2.72;;;;;;;;;;691152;28;915;-56
2021/11/01 02:11:53;;;;;;;10.43;2.35;;;;;;;;;;691267;28;959;-56
2021/11/01 02:12:18;;;;;;;9.38;2.20;;;;;;;;;;691321;28;928;-55
2021/11/01 02:12:41;;;;;;;9.23;2.10;;;;;;;;;;691020;28;863;-56
2021/11/01 02:13:06;;;;;;;10.93;2.17;;;;;;;;;;691004;28;1399;-56
2021/11/01 02:13:30;;;;;;;13.27;2.35;;;;;;;;;;691024;28;1663;-56
2021/11/01 02:13:52;;;;;;;10.32;2.50;;;;;;;;;;691283;28;841;-56
2021/11/01 02:14:13;;;;;;;10.18;2.28;;;;;;;;;;691241;28;955;-55
2021/11/01 02:14:59;;;;;;;11.00;2.40;;;;;;;;;;691062;28;1153;-56
2021/11/01 02:15:40;;;;;;;9.50;2.38;;;;;;;;;;690693;28;1808;-56